Time;durP1;ratioP1;P1;durP2;ratioP2;P2;SDS_P1;SDS_P2;PMS_P1;PMS_P2;Temp;Humidity;BMP_temperature;BMP_pressure;BME280_temperature;BME280_humidity;BME280_pressure;Samples;Min_cycle;Max_cycle;Signal;HPM_P1;HPM_P2
2022/03/12 00:00:52;;;;;;;12.02;6.85;;;;;;;6.88;49.64;101330.72;5021107;28;20098;-68
2022/03/12 00:03:18;;;;;;;9.25;6.90;;;;;;;6.89;49.41;101337.69;5020683;28;20036;-68
2022/03/12 00:05:54;;;;;;;11.35;7.03;;;;;;;6.91;49.33;101327.09;5019497;28;20495;-69
2022/03/12 00:08:44;;;;;;;11.95;6.90;;;;;;;6.91;49.04;101322.72;5018919;28;20041;-68
2022/03/12 00:11:21;;;;;;;9.68;7.25;;;;;;;6.92;49.07;101331.50;5019432;28;20022;-70
2022/03/12 00:13:47;;;;;;;8.20;6.55;;;;;;;6.91;48.94;101327.09;5019619;28;20136;-70
2022/03/12 00:16:14;;;;;;;12.60;7.25;;;;;;;6.92;49.01;101337.63;5020459;28;20483;-69
2022/03/12 00:18:42;;;;;;;10.20;6.63;;;;;;;6.92;48.96;101331.50;5018811;28;20580;-68
2022/03/12 00:21:11;;;;;;;10.60;7.22;;;;;;;6.91;48.99;101333.25;5020157;28;20038;-68
2022/03/12 00:23:37;;;;;;;8.88;6.85;;;;;;;6.90;48.82;101339.44;5000078;28;20117;-68
2022/03/12 00:26:03;;;;;;;10.65;6.72;;;;;;;6.90;48.64;101330.66;5020541;28;20561;-69
2022/03/12 00:28:28;;;;;;;14.13;7.38;;;;;;;6.90;48.89;101333.28;5018213;28;20124;-68
2022/03/12 00:30:54;;;;;;;11.63;7.13;;;;;;;6.89;48.76;101337.69;5020529;28;20040;-68
2022/03/12 00:33:21;;;;;;;13.80;6.90;;;;;;;6.89;48.60;101339.44;5000643;28;20075;-69
2022/03/12 00:35:51;;;;;;;10.07;6.47;;;;;;;6.88;48.55;101341.25;5020368;28;20033;-69
2022/03/12 00:38:17;;;;;;;11.60;6.97;;;;;;;6.87;48.50;101339.47;5019271;28;20104;-69
2022/03/12 00:40:43;;;;;;;8.48;6.50;;;;;;;6.86;48.59;101342.16;5017905;28;20067;-70
2022/03/12 00:43:10;;;;;;;11.45;7.15;;;;;;;6.85;48.37;101343.91;5019394;28;20495;-69
2022/03/12 00:45:37;;;;;;;12.07;7.20;;;;;;;6.84;48.50;101347.44;5018247;28;20057;-68
2022/03/12 00:48:04;;;;;;;8.63;7.07;;;;;;;6.83;48.65;101342.22;5018773;28;20404;-69
2022/03/12 00:50:30;;;;;;;10.52;6.90;;;;;;;6.83;48.29;101351.00;5015394;28;20057;-69
2022/03/12 00:52:56;;;;;;;9.60;6.28;;;;;;;6.81;48.64;101344.88;5020242;28;20029;-69
2022/03/12 00:55:22;;;;;;;10.25;6.88;;;;;;;6.79;48.34;101344.03;5017936;28;20419;-69
2022/03/12 00:57:47;;;;;;;11.85;6.75;;;;;;;6.78;48.43;101348.47;5018443;28;20033;-69
2022/03/12 01:00:16;;;;;;;9.30;6.85;;;;;;;6.77;48.36;101353.75;5019793;28;20025;-69
2022/03/12 01:02:42;;;;;;;10.23;6.72;;;;;;;6.76;48.63;101347.59;5016482;28;20033;-68
2022/03/12 01:05:09;;;;;;;9.95;6.78;;;;;;;6.74;48.59;101343.28;5025249;23;20484;-68
2022/03/12 01:07:34;;;;;;;11.88;6.25;;;;;;;6.72;48.76;101350.34;4982127;28;20523;-68
2022/03/12 01:10:00;;;;;;;10.07;7.28;;;;;;;6.71;48.77;101351.25;4981740;28;20033;-68
2022/03/12 01:12:25;;;;;;;11.82;7.05;;;;;;;6.69;48.80;101350.41;5001826;28;20057;-68
2022/03/12 01:14:52;;;;;;;10.00;7.20;;;;;;;6.66;48.82;101352.19;4985903;28;20195;-69
2022/03/12 01:17:17;;;;;;;12.30;6.45;;;;;;;6.64;48.85;101346.13;5001148;28;20048;-69
2022/03/12 01:19:43;;;;;;;10.95;6.97;;;;;;;6.62;49.02;101357.56;5000876;28;20038;-68
2022/03/12 01:22:18;;;;;;;9.82;6.55;;;;;;;6.59;48.96;101353.22;5000479;28;20033;-68
2022/03/12 01:24:43;;;;;;;10.18;6.93;;;;;;;6.56;49.23;101345.41;4997957;28;20029;-69
2022/03/12 01:27:09;;;;;;;10.82;7.35;;;;;;;6.52;49.26;101352.50;4982978;28;20503;-69
2022/03/12 01:29:34;;;;;;;10.05;7.15;;;;;;;6.51;49.64;101345.50;5000680;28;20037;-68
2022/03/12 01:32:00;;;;;;;12.43;6.93;;;;;;;6.48;49.75;101348.19;4999620;28;20041;-68
2022/03/12 01:34:25;;;;;;;9.00;6.80;;;;;;;6.47;49.52;101348.22;4982603;28;20026;-67
2022/03/12 01:36:51;;;;;;;10.98;7.05;;;;;;;6.44;49.77;101350.91;5000200;28;20045;-69
2022/03/12 01:39:16;;;;;;;9.63;6.85;;;;;;;6.43;49.98;101347.41;4999424;28;20515;-67
2022/03/12 01:41:43;;;;;;;10.57;6.65;;;;;;;6.40;49.52;101344.84;5000313;28;20152;-67
2022/03/12 01:44:08;;;;;;;11.75;6.95;;;;;;;6.38;49.97;101350.13;4996644;28;20056;-70
2022/03/12 01:46:39;;;;;;;13.23;7.40;;;;;;;6.37;49.56;101353.66;4981746;28;21729;-68
2022/03/12 01:49:08;;;;;;;10.85;7.18;;;;;;;6.36;49.86;101346.69;4998190;28;20608;-69
2022/03/12 01:51:34;;;;;;;11.40;6.90;;;;;;;6.35;49.53;101350.22;4982000;28;20075;-68
2022/03/12 01:54:01;;;;;;;8.85;6.78;;;;;;;6.35;49.51;101346.69;4981603;28;20370;-69
2022/03/12 01:56:28;;;;;;;9.63;6.85;;;;;;;6.35;49.25;101346.69;4999345;28;20026;-68
2022/03/12 01:58:54;;;;;;;11.98;7.38;;;;;;;6.34;49.43;101345.84;4998037;28;20119;-69
2022/03/12 02:01:21;;;;;;;10.20;6.75;;;;;;;6.33;49.45;101348.50;4983226;28;20122;-69
2022/03/12 02:03:48;;;;;;;11.25;7.43;;;;;;;6.31;49.72;101342.41;4983768;28;20241;-69
2022/03/12 02:06:21;;;;;;;11.27;7.32;;;;;;;6.29;49.70;101347.69;4995457;28;20042;-69
2022/03/12 02:08:49;;;;;;;9.95;7.38;;;;;;;6.27;50.10;101344.25;4977955;28;20099;-68
2022/03/12 02:11:21;;;;;;;14.10;7.43;;;;;;;6.26;49.93;101342.47;4978475;28;20038;-69
2022/03/12 02:13:47;;;;;;;12.13;7.55;;;;;;;6.24;49.96;101346.91;4980004;28;20037;-67
2022/03/12 02:16:12;;;;;;;13.50;7.53;;;;;;;6.23;49.69;101353.06;4980250;28;20068;-67
2022/03/12 02:18:38;;;;;;;11.48;6.93;;;;;;;6.22;49.78;101352.19;4995071;28;20170;-70
2022/03/12 02:21:04;;;;;;;10.88;7.07;;;;;;;6.22;50.18;101346.94;4977543;28;20511;-67
2022/03/12 02:23:45;;;;;;;12.35;7.20;;;;;;;6.21;50.20;101355.72;4973664;28;20032;-67
2022/03/12 02:26:10;;;;;;;11.63;7.38;;;;;;;6.19;50.15;101351.38;4994009;28;20045;-68
2022/03/12 02:28:36;;;;;;;11.70;7.53;;;;;;;6.19;50.34;101352.25;4994952;28;20038;-68
2022/03/12 02:31:01;;;;;;;11.13;7.07;;;;;;;6.19;50.07;101361.91;4981762;28;20504;-69
2022/03/12 02:33:30;;;;;;;11.98;7.53;;;;;;;6.18;50.33;101357.53;4979622;28;20406;-67
2022/03/12 02:35:56;;;;;;;10.85;6.78;;;;;;;6.17;50.24;101361.06;4981083;28;20044;-69
2022/03/12 02:38:25;;;;;;;10.43;7.45;;;;;;;6.17;49.91;101363.69;4976312;28;20484;-69
2022/03/12 02:40:51;;;;;;;11.23;7.65;;;;;;;6.15;50.21;101366.34;4980838;28;20040;-67
2022/03/12 02:43:21;;;;;;;10.80;7.32;;;;;;;6.15;50.30;101358.47;4979770;28;20095;-69
2022/03/12 02:45:48;;;;;;;12.75;8.07;;;;;;;6.15;50.10;101363.72;4994667;28;20032;-68
2022/03/12 02:48:14;;;;;;;10.88;7.50;;;;;;;6.14;50.04;101364.63;4977028;28;20638;-67
2022/03/12 02:50:41;;;;;;;10.57;7.30;;;;;;;6.14;50.16;101358.50;4979680;28;20056;-69
2022/03/12 02:53:08;;;;;;;12.73;7.78;;;;;;;6.14;49.90;101363.78;4978898;28;20030;-68
2022/03/12 02:55:36;;;;;;;11.70;7.65;;;;;;;6.13;50.32;101365.53;4979651;28;20045;-68
2022/03/12 02:58:09;;;;;;;10.02;6.80;;;;;;;6.14;49.99;101367.25;4978276;28;20615;-68
2022/03/12 03:00:36;;;;;;;14.77;7.00;;;;;;;6.15;49.95;101357.63;4979711;28;20045;-69
2022/03/12 03:03:03;;;;;;;14.55;7.10;;;;;;;6.18;49.74;101365.44;4977463;28;20034;-69
2022/03/12 03:05:36;;;;;;;10.63;6.93;;;;;;;6.21;49.23;101371.50;4964514;28;20133;-69
2022/03/12 03:08:04;;;;;;;10.52;7.50;;;;;;;6.25;49.52;101361.78;4996249;28;20128;-69
2022/03/12 03:10:34;;;;;;;10.77;7.50;;;;;;;6.27;49.15;101373.16;4998808;28;20037;-69
2022/03/12 03:13:16;;;;;;;11.02;7.85;;;;;;;6.31;49.25;101376.59;4997280;28;20113;-69
2022/03/12 03:16:01;;;;;;;11.65;7.50;;;;;;;6.32;49.22;101373.91;4999953;28;20021;-69
2022/03/12 03:18:39;;;;;;;11.23;7.55;;;;;;;6.34;49.27;101380.03;4982584;28;20282;-69
2022/03/12 03:21:10;;;;;;;8.88;6.95;;;;;;;6.36;49.77;101382.63;5000545;28;20030;-69
2022/03/12 03:23:36;;;;;;;11.07;7.97;;;;;;;6.37;49.59;101385.22;4986165;28;20038;-69
2022/03/12 03:26:03;;;;;;;9.85;7.35;;;;;;;6.37;49.93;101386.97;4990698;28;20046;-69
2022/03/12 03:28:28;;;;;;;10.75;7.75;;;;;;;6.37;50.00;101395.75;5003732;28;20055;-69
2022/03/12 03:30:54;;;;;;;13.07;7.60;;;;;;;6.36;49.86;101401.91;5001690;28;20555;-68
2022/03/12 03:33:21;;;;;;;10.98;7.68;;;;;;;6.35;50.04;101394.91;5003110;28;20033;-69
2022/03/12 03:35:47;;;;;;;10.77;7.40;;;;;;;6.34;50.56;101398.44;5003804;28;20038;-69
2022/03/12 03:38:13;;;;;;;10.05;7.30;;;;;;;6.32;50.40;101394.97;5002022;28;20703;-69
2022/03/12 03:40:40;;;;;;;10.80;7.22;;;;;;;6.34;50.72;101403.72;5003662;28;20034;-69
2022/03/12 03:43:14;;;;;;;11.82;7.68;;;;;;;6.34;50.90;101413.34;5003167;28;20045;-69
2022/03/12 03:45:42;;;;;;;10.52;7.43;;;;;;;6.31;50.47;101403.75;5003025;28;20477;-69
2022/03/12 03:48:19;;;;;;;10.80;8.07;;;;;;;6.31;50.80;101409.00;5002845;28;20679;-69
2022/03/12 03:50:46;;;;;;;12.30;7.72;;;;;;;6.34;50.61;101413.34;5004274;28;20518;-69
2022/03/12 03:53:13;;;;;;;12.68;7.78;;;;;;;6.32;50.85;101416.00;4999941;28;20041;-69
2022/03/12 03:55:39;;;;;;;10.80;8.05;;;;;;;6.31;50.81;101416.91;5003243;28;20185;-68
2022/03/12 03:58:05;;;;;;;11.90;7.40;;;;;;;6.33;51.33;101423.00;5003040;28;20129;-68
2022/03/12 04:00:32;;;;;;;15.35;7.93;;;;;;;6.34;51.50;101422.13;5002239;28;20116;-68
2022/03/12 04:03:04;;;;;;;12.13;8.35;;;;;;;6.34;51.79;101419.50;5002486;28;20025;-68
2022/03/12 04:05:37;;;;;;;13.37;8.17;;;;;;;6.35;52.16;101428.22;5001676;28;20037;-69
2022/03/12 04:08:07;;;;;;;12.88;8.32;;;;;;;6.32;52.21;101426.53;5001352;28;20049;-68
2022/03/12 04:10:34;;;;;;;12.75;8.48;;;;;;;6.31;52.92;101430.03;4982987;28;20037;-69
2022/03/12 04:13:00;;;;;;;18.15;8.88;;;;;;;6.29;53.16;101425.72;4984135;28;20121;-69
2022/03/12 04:15:26;;;;;;;10.98;8.10;;;;;;;6.28;53.75;101435.38;5003130;28;20350;-69
2022/03/12 04:17:52;;;;;;;12.80;9.23;;;;;;;6.25;54.07;101433.66;4984218;28;20030;-68
2022/03/12 04:20:22;;;;;;;13.27;8.48;;;;;;;6.24;54.13;101431.06;4985252;28;20049;-68
2022/03/12 04:22:49;;;;;;;13.63;9.00;;;;;;;6.21;54.59;101437.22;5001525;28;20057;-68
2022/03/12 04:25:15;;;;;;;13.68;8.23;;;;;;;6.20;54.75;101438.13;4983923;28;20166;-68
2022/03/12 04:27:44;;;;;;;12.30;9.00;;;;;;;6.18;55.16;101433.78;4990365;28;20550;-68
2022/03/12 04:30:12;;;;;;;13.00;8.90;;;;;;;6.14;56.07;101434.75;4989013;28;20057;-67
2022/03/12 04:32:39;;;;;;;15.05;9.32;;;;;;;6.09;55.99;101443.59;4999565;28;20117;-68
2022/03/12 04:35:05;;;;;;;13.85;9.48;;;;;;;6.06;56.19;101435.72;5001248;28;20041;-68
2022/03/12 04:37:32;;;;;;;13.05;9.18;;;;;;;6.05;56.84;101441.03;5000217;28;20543;-68
2022/03/12 04:39:58;;;;;;;13.60;9.98;;;;;;;6.03;57.40;101446.31;4999412;28;20132;-68
2022/03/12 04:42:23;;;;;;;16.35;9.25;;;;;;;6.00;57.16;101441.09;5001631;28;20447;-69
2022/03/12 04:44:50;;;;;;;15.50;9.82;;;;;;;6.00;57.70;101443.72;5003066;28;20041;-68
2022/03/12 04:47:18;;;;;;;15.43;9.95;;;;;;;5.97;57.81;101447.25;5003072;28;20029;-69
2022/03/12 04:49:43;;;;;;;17.08;10.50;;;;;;;5.94;58.66;101447.28;5002422;28;21499;-68
2022/03/12 04:52:10;;;;;;;15.68;10.40;;;;;;;5.93;58.93;101447.31;4999897;28;20026;-68
2022/03/12 04:54:36;;;;;;;14.77;10.10;;;;;;;5.90;58.55;101461.41;5000708;28;20029;-68
2022/03/12 04:57:02;;;;;;;15.35;10.15;;;;;;;5.89;59.02;101461.41;4971965;28;20040;-69
2022/03/12 04:59:28;;;;;;;14.38;9.68;;;;;;;5.86;59.20;101464.94;5001991;28;20490;-68
2022/03/12 05:01:53;;;;;;;15.98;9.77;;;;;;;5.85;59.19;101464.06;4983733;28;20048;-69
2022/03/12 05:04:19;;;;;;;15.50;9.68;;;;;;;5.83;59.66;101460.59;4999729;28;20037;-68
2022/03/12 05:06:44;;;;;;;12.90;9.55;;;;;;;5.80;59.72;101458.03;4982592;28;20462;-69
2022/03/12 05:09:10;;;;;;;17.20;10.10;;;;;;;5.77;60.16;101455.44;5000371;28;20776;-69
2022/03/12 05:11:38;;;;;;;16.15;11.68;;;;;;;5.75;60.20;101440.59;5001593;28;20037;-68
2022/03/12 05:14:06;;;;;;;14.93;10.15;;;;;;;5.74;60.51;101459.88;5002833;28;20117;-68
2022/03/12 05:16:32;;;;;;;15.55;10.15;;;;;;;5.71;60.54;101461.69;5002442;28;20038;-69
2022/03/12 05:18:58;;;;;;;16.50;10.85;;;;;;;5.70;61.24;101464.31;5001321;28;20038;-69
2022/03/12 05:21:24;;;;;;;15.35;10.40;;;;;;;5.69;61.12;101465.22;5000823;28;20038;-69
2022/03/12 05:23:50;;;;;;;17.15;10.68;;;;;;;5.66;61.53;101462.66;4982737;28;20030;-68
2022/03/12 05:26:15;;;;;;;16.58;10.43;;;;;;;5.63;61.45;101458.31;4999597;28;20129;-69
2022/03/12 05:28:41;;;;;;;15.38;10.45;;;;;;;5.59;61.84;101461.84;5001049;28;20034;-69
2022/03/12 05:31:09;;;;;;;14.00;10.40;;;;;;;5.55;61.67;101460.16;4983380;28;20124;-68
2022/03/12 05:33:35;;;;;;;18.02;10.35;;;;;;;5.53;62.15;101461.94;4983487;28;20033;-69
2022/03/12 05:36:02;;;;;;;13.82;10.00;;;;;;;5.50;61.68;101468.09;4983100;28;20034;-69
2022/03/12 05:38:34;;;;;;;16.17;10.23;;;;;;;5.45;62.11;101464.66;4998540;28;20534;-69
2022/03/12 05:41:00;;;;;;;14.52;10.00;;;;;;;5.42;62.29;101469.97;4989401;28;20142;-69
2022/03/12 05:43:26;;;;;;;15.35;10.27;;;;;;;5.40;61.97;101472.59;5001347;28;20076;-69
2022/03/12 05:45:52;;;;;;;15.63;9.63;;;;;;;5.39;61.78;101465.63;5000810;28;20038;-69
2022/03/12 05:48:19;;;;;;;15.55;9.85;;;;;;;5.38;62.04;101473.50;4982705;28;20049;-69
2022/03/12 05:50:49;;;;;;;18.48;10.77;;;;;;;5.35;62.31;101469.19;4999196;28;20045;-69
2022/03/12 05:53:17;;;;;;;15.18;9.77;;;;;;;5.33;62.42;101470.09;4999270;28;20029;-69
2022/03/12 05:55:43;;;;;;;15.88;10.93;;;;;;;5.28;62.59;101473.66;4998605;28;20052;-69
2022/03/12 05:58:10;;;;;;;17.10;11.23;;;;;;;5.26;62.55;101485.94;5000735;28;20033;-69
2022/03/12 06:00:36;;;;;;;15.30;10.15;;;;;;;5.22;62.95;101492.09;4998898;28;20124;-69
2022/03/12 06:03:02;;;;;;;13.52;9.88;;;;;;;5.18;62.72;101493.06;4983254;28;20036;-69
2022/03/12 06:05:27;;;;;;;13.77;9.82;;;;;;;5.13;62.75;101486.97;5000604;28;20037;-69
2022/03/12 06:07:54;;;;;;;14.90;10.52;;;;;;;5.09;62.26;101488.78;4998273;28;20271;-69
2022/03/12 06:10:25;;;;;;;15.50;9.73;;;;;;;5.06;62.77;101485.31;4980726;28;20030;-69
2022/03/12 06:12:53;;;;;;;14.50;10.18;;;;;;;5.02;62.52;101493.22;5001053;28;20255;-69
2022/03/12 06:15:24;;;;;;;14.82;9.73;;;;;;;5.00;62.04;101502.88;4998427;28;20334;-69
2022/03/12 06:17:50;;;;;;;16.92;10.57;;;;;;;4.98;62.57;101496.78;5000244;28;20033;-68
2022/03/12 06:20:17;;;;;;;15.18;10.48;;;;;;;4.96;61.98;101498.53;4999254;28;20052;-68
2022/03/12 06:22:44;;;;;;;16.55;9.85;;;;;;;4.96;62.29;101502.94;4999963;28;20052;-69
2022/03/12 06:25:11;;;;;;;15.20;10.00;;;;;;;4.96;62.07;101503.78;5000904;28;20344;-69
2022/03/12 06:27:37;;;;;;;13.75;9.60;;;;;;;4.95;62.23;101507.28;4981964;28;20392;-69
2022/03/12 06:30:05;;;;;;;15.20;10.18;;;;;;;4.93;62.59;101514.31;5001592;28;20034;-69
2022/03/12 06:32:31;;;;;;;17.08;9.93;;;;;;;4.93;61.89;101519.56;4998412;28;20856;-69
2022/03/12 06:34:57;;;;;;;15.15;10.18;;;;;;;4.90;62.06;101519.59;5000908;28;20096;-69
2022/03/12 06:37:23;;;;;;;17.90;10.65;;;;;;;4.90;62.28;101519.59;4999396;28;20030;-69
2022/03/12 06:39:48;;;;;;;13.57;9.95;;;;;;;4.89;62.59;101524.00;4999295;28;22039;-69
2022/03/12 06:42:15;;;;;;;26.08;10.15;;;;;;;4.88;62.38;101516.13;5000457;28;20368;-69
2022/03/12 06:44:42;;;;;;;14.45;10.07;;;;;;;4.87;62.58;101522.25;5001141;28;20386;-69
2022/03/12 06:47:09;;;;;;;16.90;10.02;;;;;;;4.85;62.12;101522.28;5000257;28;20025;-69
2022/03/12 06:49:38;;;;;;;14.30;9.70;;;;;;;4.88;62.50;101531.88;5000508;28;20041;-69
2022/03/12 06:52:05;;;;;;;14.98;11.07;;;;;;;4.91;62.72;101523.97;4986748;28;20038;-69
2022/03/12 06:54:30;;;;;;;16.30;10.27;;;;;;;4.94;62.53;101536.16;5000293;28;20457;-71
2022/03/12 06:56:56;;;;;;;15.55;10.55;;;;;;;4.97;62.45;101542.25;5003070;28;20037;-69
2022/03/12 06:59:21;;;;;;;19.98;10.73;;;;;;;5.02;62.51;101539.59;4984919;28;20033;-69
2022/03/12 07:01:47;;;;;;;17.08;10.15;;;;;;;5.09;62.80;101545.66;5000943;28;21707;-71
2022/03/12 07:04:12;;;;;;;15.02;9.68;;;;;;;5.14;62.39;101547.31;5001916;28;20040;-70
2022/03/12 07:06:38;;;;;;;18.65;10.45;;;;;;;5.22;62.53;101551.63;4992423;28;20310;-72
2022/03/12 07:09:04;;;;;;;15.52;10.45;;;;;;;5.27;62.58;101544.56;4991143;28;20041;-70
2022/03/12 07:11:31;;;;;;;15.68;10.15;;;;;;;5.32;62.89;101547.16;5002196;28;20033;-70
2022/03/12 07:13:58;;;;;;;18.70;9.85;;;;;;;5.39;62.29;101548.81;4969311;28;20026;-68
2022/03/12 07:16:23;;;;;;;17.08;11.68;;;;;;;5.45;62.80;101553.97;5004844;28;20030;-69
2022/03/12 07:18:49;;;;;;;19.27;10.90;;;;;;;5.50;62.45;101552.16;4983969;28;20040;-69
2022/03/12 07:21:15;;;;;;;16.05;10.50;;;;;;;5.56;62.38;101546.81;5000064;28;20046;-69
2022/03/12 07:23:41;;;;;;;16.38;10.98;;;;;;;5.63;62.46;101547.63;5003060;28;20087;-68
2022/03/12 07:26:07;;;;;;;17.90;10.77;;;;;;;5.70;62.33;101546.66;4986415;28;20377;-66
2022/03/12 07:28:33;;;;;;;14.15;9.82;;;;;;;5.78;62.72;101549.16;5003690;28;22042;-68
2022/03/12 07:30:59;;;;;;;16.83;10.40;;;;;;;5.87;62.19;101545.53;5003961;28;20131;-67
2022/03/12 07:33:25;;;;;;;15.77;10.77;;;;;;;5.95;62.57;101550.69;4985825;28;20388;-67
2022/03/12 07:35:51;;;;;;;16.17;11.10;;;;;;;6.02;62.52;101555.00;5003949;28;20040;-68
2022/03/12 07:38:16;;;;;;;15.60;10.07;;;;;;;6.09;62.53;101551.38;4990436;28;20029;-69
2022/03/12 07:40:42;;;;;;;16.42;10.32;;;;;;;6.17;62.73;101563.53;5003035;28;20087;-68
2022/03/12 07:43:08;;;;;;;16.33;10.60;;;;;;;6.24;62.39;101560.78;5003610;28;20026;-69
2022/03/12 07:45:33;;;;;;;14.95;10.45;;;;;;;6.34;62.51;101561.50;4998043;28;20116;-68
2022/03/12 07:47:59;;;;;;;15.00;11.02;;;;;;;6.42;62.80;101561.38;4984240;28;20041;-71
2022/03/12 07:50:26;;;;;;;18.73;11.13;;;;;;;6.52;62.59;101564.72;5002455;28;20343;-69
2022/03/12 07:52:52;;;;;;;18.40;11.60;;;;;;;6.63;62.75;101567.16;5002745;28;20075;-70
2022/03/12 07:55:18;;;;;;;15.48;10.10;;;;;;;6.73;62.65;101563.50;5001554;28;20026;-70
2022/03/12 07:57:43;;;;;;;20.02;10.60;;;;;;;6.82;62.24;101562.47;4968518;28;20392;-70
2022/03/12 08:00:11;;;;;;;16.75;10.70;;;;;;;6.94;62.51;101571.88;4984520;28;20512;-70
2022/03/12 08:02:37;;;;;;;17.63;10.82;;;;;;;7.04;62.40;101570.81;5000676;28;20456;-69
2022/03/12 08:05:03;;;;;;;17.70;10.80;;;;;;;7.16;62.57;101577.63;4986032;28;20112;-69
2022/03/12 08:07:29;;;;;;;15.68;10.38;;;;;;;7.26;62.52;101578.31;5002421;28;20049;-68
2022/03/12 08:09:59;;;;;;;17.05;10.15;;;;;;;7.38;62.63;101584.22;5001069;28;20033;-68
2022/03/12 08:12:30;;;;;;;17.77;10.43;;;;;;;7.50;62.55;101580.44;4992329;28;20047;-70
2022/03/12 08:14:57;;;;;;;17.75;11.52;;;;;;;7.59;62.60;101585.56;4976163;28;20038;-67
2022/03/12 08:17:24;;;;;;;19.20;10.88;;;;;;;7.69;62.16;101592.34;5001036;28;20078;-68
2022/03/12 08:19:50;;;;;;;14.98;10.30;;;;;;;7.79;62.24;101590.38;5001814;28;20038;-69
2022/03/12 08:22:16;;;;;;;15.68;10.25;;;;;;;7.86;62.57;101585.84;5002985;28;20116;-68
2022/03/12 08:24:42;;;;;;;19.55;11.23;;;;;;;7.94;62.27;101589.19;4985975;28;20243;-68
2022/03/12 08:27:08;;;;;;;15.32;10.07;;;;;;;8.01;62.23;101596.06;5002145;28;20025;-68
2022/03/12 08:29:33;;;;;;;17.63;11.60;;;;;;;8.08;62.25;101583.59;5002871;28;20041;-68
2022/03/12 08:31:59;;;;;;;16.80;11.50;;;;;;;8.17;62.16;101586.94;5001695;28;20420;-69
2022/03/12 08:34:26;;;;;;;16.05;11.23;;;;;;;8.23;62.21;101586.78;4991295;28;20045;-69
2022/03/12 08:36:52;;;;;;;15.52;11.20;;;;;;;8.30;61.90;101591.00;4987531;28;20465;-69
2022/03/12 08:39:17;;;;;;;16.33;11.93;;;;;;;8.39;62.42;101597.84;4983729;28;20106;-69
2022/03/12 08:41:44;;;;;;;17.70;11.23;;;;;;;8.48;62.59;101597.59;5002296;28;20120;-68
2022/03/12 08:44:10;;;;;;;17.50;11.15;;;;;;;8.57;62.27;101607.13;5003158;28;20649;-69
2022/03/12 08:46:36;;;;;;;19.55;11.95;;;;;;;8.66;62.49;101601.59;5003113;28;20048;-69
2022/03/12 08:49:03;;;;;;;17.60;11.98;;;;;;;8.76;62.45;101607.50;5002308;28;20084;-68
2022/03/12 08:51:29;;;;;;;19.05;11.95;;;;;;;8.83;62.36;101597.66;5002593;28;20092;-68
2022/03/12 08:53:54;;;;;;;23.67;11.27;;;;;;;8.92;62.41;101597.41;4970408;28;20574;-69
2022/03/12 08:56:20;;;;;;;21.50;11.95;;;;;;;9.00;62.57;101599.88;5002534;28;20152;-69
2022/03/12 08:58:47;;;;;;;22.38;12.25;;;;;;;9.09;62.70;101598.72;4984385;28;20030;-68
2022/03/12 09:01:12;;;;;;;21.25;12.15;;;;;;;9.18;62.74;101605.53;5000306;28;20038;-68
2022/03/12 09:03:38;;;;;;;19.70;12.48;;;;;;;9.23;62.88;101606.28;5002370;28;20029;-69
2022/03/12 09:06:04;;;;;;;17.67;12.18;;;;;;;9.31;63.07;101611.38;4985952;28;21931;-69
2022/03/12 09:08:29;;;;;;;18.33;11.50;;;;;;;9.38;62.87;101615.56;5001827;28;20128;-69
2022/03/12 09:10:55;;;;;;;16.48;11.45;;;;;;;9.43;63.07;101621.56;4979414;28;20540;-69
2022/03/12 09:13:22;;;;;;;19.27;11.45;;;;;;;9.54;63.69;101621.28;4985020;28;20057;-68
2022/03/12 09:15:48;;;;;;;16.00;10.93;;;;;;;9.61;63.30;101621.97;5002854;28;20034;-68
2022/03/12 09:18:15;;;;;;;16.55;10.75;;;;;;;9.69;63.56;101617.31;4981633;28;20450;-69
2022/03/12 09:20:46;;;;;;;15.80;11.15;;;;;;;9.74;63.41;101615.41;5002735;28;20175;-69
2022/03/12 09:23:17;;;;;;;19.02;11.10;;;;;;;9.82;63.90;101614.31;4968762;28;20546;-68
2022/03/12 09:25:42;;;;;;;16.48;10.85;;;;;;;9.86;63.36;101622.09;4985454;28;20061;-69
2022/03/12 09:28:09;;;;;;;16.08;11.00;;;;;;;9.94;63.93;101621.00;4999179;28;20732;-69
2022/03/12 09:30:34;;;;;;;23.60;10.55;;;;;;;10.00;63.71;101620.81;4982681;28;20037;-68
2022/03/12 09:33:00;;;;;;;27.92;11.57;;;;;;;10.06;63.71;101620.63;5001965;28;20086;-68
2022/03/12 09:35:26;;;;;;;27.42;11.68;;;;;;;10.14;64.25;101626.53;4984022;28;20041;-65
2022/03/12 09:37:51;;;;;;;24.20;10.98;;;;;;;10.22;64.22;101622.78;5001182;28;20519;-71
2022/03/12 09:40:17;;;;;;;36.50;12.05;;;;;;;10.29;64.12;101629.63;4988798;28;20385;-68
2022/03/12 09:42:45;;;;;;;39.25;12.13;;;;;;;10.35;63.95;101636.53;4990788;28;20037;-68
2022/03/12 09:45:22;;;;;;;;;;;;;;;;;;;;;
2022/03/12 09:47:51;;;;;;;24.40;10.57;;;;;;;10.48;63.87;101640.53;5000436;28;20132;-70
2022/03/12 09:50:17;;;;;;;19.15;10.85;;;;;;;10.54;64.11;101650.94;4983370;28;20036;-69
2022/03/12 09:52:43;;;;;;;23.05;10.15;;;;;;;10.60;64.26;101652.50;5000783;28;20046;-71
2022/03/12 09:55:09;;;;;;;26.70;11.10;;;;;;;10.67;64.24;101653.19;5001114;28;20035;-69
2022/03/12 09:57:35;;;;;;;26.55;10.60;;;;;;;10.75;64.59;101650.25;5000646;28;21620;-71
2022/03/12 10:00:04;;;;;;;30.25;11.32;;;;;;;10.81;64.60;101650.94;5000413;28;20033;-71
2022/03/12 10:02:30;;;;;;;19.40;9.70;;;;;;;10.86;64.46;101648.97;4984675;28;20065;-70
2022/03/12 10:04:59;;;;;;;25.13;9.70;;;;;;;10.94;64.87;101661.97;5001010;28;20038;-69
2022/03/12 10:07:25;;;;;;;24.65;9.82;;;;;;;11.00;64.78;101650.28;5000146;28;20111;-70
2022/03/12 10:09:50;;;;;;;20.25;9.23;;;;;;;11.07;65.11;101659.75;4999291;28;20553;-69
2022/03/12 10:12:16;;;;;;;15.50;9.63;;;;;;;11.16;65.41;101653.28;4983600;28;21551;-74
2022/03/12 10:14:41;;;;;;;14.07;9.30;;;;;;;11.23;65.29;101656.59;4984085;28;21646;-74
2022/03/12 10:17:07;;;;;;;15.88;8.77;;;;;;;11.31;65.13;101649.22;4999560;28;20550;-72
2022/03/12 10:19:37;;;;;;;13.63;8.32;;;;;;;11.39;65.25;101651.63;4998245;28;20278;-73
2022/03/12 10:22:04;;;;;;;13.00;8.38;;;;;;;11.47;65.51;101649.53;5001855;28;20038;-72
2022/03/12 10:24:30;;;;;;;15.00;8.45;;;;;;;11.55;65.65;101644.81;4984737;28;20534;-72
2022/03/12 10:26:56;;;;;;;12.75;8.45;;;;;;;11.65;65.49;101637.38;5000725;28;20478;-74
2022/03/12 10:29:22;;;;;;;11.05;7.90;;;;;;;11.73;65.73;101642.41;4999482;28;20033;-73
2022/03/12 10:31:47;;;;;;;12.27;7.43;;;;;;;11.82;65.70;101636.75;5000743;28;20388;-71
2022/03/12 10:34:23;;;;;;;18.05;7.82;;;;;;;11.92;65.63;101647.00;4998778;28;20033;-68
2022/03/12 10:37:18;;;;;;;90.93;12.88;;;;;;;11.99;65.73;101655.59;5001453;28;20610;-69
2022/03/12 10:40:10;;;;;;;62.88;11.35;;;;;;;12.06;65.49;101654.47;4999930;28;20244;-68
2022/03/12 10:42:48;;;;;;;65.20;10.20;;;;;;;12.13;65.52;101655.97;5000926;28;20448;-70
2022/03/12 10:45:19;;;;;;;14.07;6.93;;;;;;;12.21;65.28;101658.34;4985253;28;20032;-70
2022/03/12 10:47:47;;;;;;;17.75;6.88;;;;;;;12.28;65.27;101657.16;5000244;28;20283;-70
2022/03/12 10:50:15;;;;;;;37.70;8.55;;;;;;;12.35;65.22;101671.03;5000910;28;20165;-71
2022/03/12 10:52:46;;;;;;;60.42;8.65;;;;;;;12.41;65.18;101665.50;4998992;28;20463;-73
2022/03/12 10:55:17;;;;;;;24.77;6.95;;;;;;;12.50;64.98;101669.56;4999314;28;20038;-72
2022/03/12 10:58:01;;;;;;;15.88;6.22;;;;;;;12.58;64.87;101666.63;5000255;28;20048;-71
2022/03/12 11:00:30;;;;;;;64.78;8.93;;;;;;;12.65;64.51;101672.53;5000510;28;20030;-71
2022/03/12 11:03:00;;;;;;;35.47;7.38;;;;;;;12.69;64.54;101674.16;5000983;28;20040;-72
2022/03/12 11:05:27;;;;;;;22.13;6.82;;;;;;;12.72;64.59;101680.19;5001237;28;20049;-72
2022/03/12 11:08:11;;;;;;;8.85;5.72;;;;;;;12.77;64.25;101677.34;4998577;28;20138;-72
2022/03/12 11:10:43;;;;;;;11.13;5.30;;;;;;;12.82;64.37;101680.69;4983858;28;20041;-72
2022/03/12 11:13:09;;;;;;;11.27;5.15;;;;;;;12.90;64.32;101686.53;5001353;28;20029;-72
2022/03/12 11:15:35;;;;;;;15.60;4.40;;;;;;;12.97;63.88;101688.94;5001023;28;20083;-71
2022/03/12 11:18:06;;;;;;;14.38;5.05;;;;;;;13.01;63.66;101690.50;5001019;28;20029;-72
2022/03/12 11:20:35;;;;;;;21.13;5.38;;;;;;;13.06;63.67;101688.53;4982187;28;20030;-70
2022/03/12 11:23:13;;;;;;;13.15;5.00;;;;;;;13.13;63.59;101690.00;4997295;28;20030;-71